createdAt,value
2019-05-19T00:01:05.629Z,15.50
2019-05-19T00:03:32.163Z,15.50
2019-05-19T00:05:58.314Z,15.40
2019-05-19T00:08:24.450Z,15.50
2019-05-19T00:10:50.595Z,15.50
2019-05-19T00:13:18.631Z,15.40
2019-05-19T00:15:44.796Z,15.40
2019-05-19T00:18:10.987Z,15.30
2019-05-19T00:20:37.162Z,15.30
2019-05-19T00:23:04.494Z,15.30
2019-05-19T00:25:31.791Z,15.40
2019-05-19T00:27:58.214Z,15.40
2019-05-19T00:30:24.366Z,15.40
2019-05-19T00:32:50.902Z,15.30
2019-05-19T00:35:17.047Z,15.30
2019-05-19T00:37:43.203Z,15.30
2019-05-19T00:40:09.643Z,15.30
2019-05-19T00:42:35.910Z,15.40
2019-05-19T00:45:04.935Z,15.30
2019-05-19T00:47:31.343Z,15.30
2019-05-19T00:49:57.900Z,15.40
2019-05-19T00:52:24.055Z,15.30
2019-05-19T00:54:50.273Z,15.20
2019-05-19T00:57:16.827Z,15.30
2019-05-19T00:59:44.742Z,15.20
2019-05-19T01:02:11.022Z,15.20
2019-05-19T01:04:37.150Z,15.20
2019-05-19T01:07:03.636Z,15.20
2019-05-19T01:09:29.779Z,15.10
2019-05-19T01:11:56.056Z,15.20
2019-05-19T01:14:22.217Z,15.20
2019-05-19T01:16:48.367Z,15.20
2019-05-19T01:19:14.512Z,15.20
2019-05-19T01:21:41.700Z,15.20
2019-05-19T01:24:07.924Z,15.20
2019-05-19T01:26:34.078Z,15.20
2019-05-19T01:29:00.531Z,15.20
2019-05-19T01:31:26.676Z,15.30
2019-05-19T01:33:52.827Z,15.20
2019-05-19T01:36:19.717Z,15.00
2019-05-19T01:38:45.836Z,14.80
2019-05-19T01:41:11.982Z,14.80
2019-05-19T01:43:39.251Z,14.70
2019-05-19T01:46:05.474Z,14.50
2019-05-19T01:48:31.622Z,14.60
2019-05-19T01:50:57.782Z,14.70
2019-05-19T01:53:23.937Z,14.80
2019-05-19T01:55:50.068Z,14.70
2019-05-19T01:58:16.220Z,14.60
2019-05-19T02:00:42.565Z,14.60
2019-05-19T02:03:08.815Z,14.50
2019-05-19T02:05:35.196Z,14.50
2019-05-19T02:08:02.354Z,14.40
2019-05-19T02:10:28.509Z,14.50
2019-05-19T02:12:54.650Z,14.50
2019-05-19T02:15:21.114Z,14.60
2019-05-19T02:17:47.245Z,14.40
2019-05-19T02:20:13.491Z,14.50
2019-05-19T02:22:39.639Z,14.40
2019-05-19T02:25:07.758Z,14.40
2019-05-19T02:27:33.890Z,14.30
2019-05-19T02:30:00.044Z,14.40
2019-05-19T02:32:26.447Z,14.10
2019-05-19T02:34:52.735Z,14.20
2019-05-19T02:37:20.482Z,14.20
2019-05-19T02:39:46.639Z,14.20
2019-05-19T02:42:15.138Z,14.10
2019-05-19T02:44:43.302Z,14.20
2019-05-19T02:47:10.921Z,14.20
2019-05-19T02:49:37.741Z,14.30
2019-05-19T02:52:04.080Z,14.30
2019-05-19T02:54:32.242Z,14.10
2019-05-19T02:56:59.673Z,14.10
2019-05-19T02:59:29.745Z,14.10
2019-05-19T03:02:03.591Z,14.10
2019-05-19T03:04:30.850Z,14.10
2019-05-19T03:06:57.400Z,14.10
2019-05-19T03:09:23.569Z,14.20
2019-05-19T03:11:49.891Z,14.10
2019-05-19T03:14:16.054Z,14.10
2019-05-19T03:16:42.201Z,14.20
2019-05-19T03:19:08.382Z,14.20
2019-05-19T03:21:34.529Z,14.30
2019-05-19T03:24:01.004Z,14.30
2019-05-19T03:26:27.428Z,14.40
2019-05-19T03:28:53.570Z,14.30
2019-05-19T03:31:31.153Z,14.40
2019-05-19T03:33:58.195Z,14.30
2019-05-19T03:36:24.466Z,14.20
2019-05-19T03:38:50.628Z,14.20
2019-05-19T03:41:17.206Z,14.10
2019-05-19T03:43:43.364Z,14.00
2019-05-19T03:46:09.525Z,14.00
2019-05-19T03:48:35.667Z,13.90
2019-05-19T03:51:01.832Z,13.90
2019-05-19T03:53:27.999Z,13.90
2019-05-19T03:55:54.230Z,13.80
2019-05-19T03:58:20.381Z,13.80
2019-05-19T04:00:46.543Z,13.80
2019-05-19T04:03:12.952Z,13.80
2019-05-19T04:05:39.127Z,13.90
2019-05-19T04:08:05.547Z,14.10
2019-05-19T04:10:31.703Z,14.10
2019-05-19T04:12:58.168Z,14.10
2019-05-19T04:15:24.324Z,14.10
2019-05-19T04:17:50.482Z,14.20
2019-05-19T04:20:16.644Z,14.30
2019-05-19T04:22:42.795Z,14.30
2019-05-19T04:25:08.967Z,14.40
2019-05-19T04:27:35.150Z,14.60
2019-05-19T04:30:04.712Z,14.60
2019-05-19T04:32:30.864Z,14.50
2019-05-19T04:34:57.335Z,14.50
2019-05-19T04:37:23.556Z,14.50
2019-05-19T04:39:50.260Z,14.60
2019-05-19T04:42:16.442Z,14.80
2019-05-19T04:44:42.934Z,14.90
2019-05-19T04:47:09.102Z,15.00
2019-05-19T04:49:35.244Z,15.00
2019-05-19T04:52:06.863Z,15.10
2019-05-19T04:54:29.209Z,15.10
2019-05-19T04:56:55.284Z,15.10
2019-05-19T04:59:21.315Z,15.20
2019-05-19T05:01:47.473Z,15.10
2019-05-19T05:04:13.719Z,15.20
2019-05-19T05:06:39.976Z,15.20
2019-05-19T05:09:06.127Z,15.20
2019-05-19T05:11:32.278Z,15.30
2019-05-19T05:13:58.435Z,15.40
2019-05-19T05:16:24.598Z,15.30
2019-05-19T05:18:50.796Z,15.50
2019-05-19T05:21:17.150Z,15.60
2019-05-19T05:23:43.199Z,15.70
2019-05-19T05:26:09.270Z,15.90
2019-05-19T05:28:35.544Z,15.90
2019-05-19T05:31:01.569Z,16.00
2019-05-19T05:33:27.614Z,16.20
2019-05-19T05:35:53.645Z,16.10
2019-05-19T05:38:19.870Z,16.20
2019-05-19T05:40:45.890Z,16.10
2019-05-19T05:43:11.950Z,16.20
2019-05-19T05:45:38.224Z,16.20
2019-05-19T05:48:04.274Z,16.20
2019-05-19T05:50:30.288Z,16.30
2019-05-19T05:52:58.280Z,16.60
2019-05-19T05:55:24.300Z,16.80
2019-05-19T05:57:50.355Z,17.00
2019-05-19T06:00:16.586Z,17.20
2019-05-19T06:02:42.638Z,17.20
2019-05-19T06:05:09.216Z,17.40
2019-05-19T06:07:35.351Z,17.40
2019-05-19T06:10:01.367Z,17.50
2019-05-19T06:12:27.411Z,17.70
2019-05-19T06:14:53.450Z,17.90
2019-05-19T06:17:19.472Z,17.90
2019-05-19T06:19:45.803Z,18.00
2019-05-19T06:22:11.870Z,18.20
2019-05-19T06:24:37.887Z,18.40
2019-05-19T06:27:03.923Z,18.20
2019-05-19T06:29:30.244Z,18.50
2019-05-19T06:31:58.227Z,19.00
2019-05-19T06:34:24.264Z,19.30
2019-05-19T06:36:50.414Z,19.00
2019-05-19T06:39:16.447Z,19.20
2019-05-19T06:41:42.466Z,19.10
2019-05-19T06:44:08.731Z,19.50
2019-05-19T06:46:34.993Z,20.10
2019-05-19T06:49:01.020Z,19.80
2019-05-19T06:51:27.049Z,19.80
2019-05-19T06:53:53.122Z,19.80
2019-05-19T06:56:19.483Z,20.20
2019-05-19T06:58:45.507Z,19.80
2019-05-19T07:01:11.558Z,19.50
2019-05-19T07:03:37.625Z,19.70
2019-05-19T07:06:03.654Z,20.10
2019-05-19T07:08:29.701Z,20.40
2019-05-19T07:10:55.710Z,20.70
2019-05-19T07:13:22.038Z,20.50
2019-05-19T07:15:48.070Z,20.40
2019-05-19T07:18:14.102Z,20.90
2019-05-19T07:20:40.126Z,21.10
2019-05-19T07:23:06.892Z,20.80
2019-05-19T07:25:33.185Z,20.90
2019-05-19T07:27:59.203Z,20.90
2019-05-19T07:30:25.252Z,20.50
2019-05-19T07:32:51.437Z,20.60
2019-05-19T07:35:17.586Z,20.30
2019-05-19T07:37:43.649Z,20.30
2019-05-19T07:40:09.782Z,20.00
2019-05-19T07:42:35.939Z,20.10
2019-05-19T07:45:02.920Z,20.60
2019-05-19T07:47:28.932Z,20.40
2019-05-19T07:49:54.971Z,20.70
2019-05-19T07:52:21.119Z,20.40
2019-05-19T07:54:47.143Z,20.40
2019-05-19T07:57:13.183Z,20.40
2019-05-19T07:59:39.244Z,20.60
2019-05-19T08:02:05.411Z,20.50
2019-05-19T08:04:31.516Z,20.70
2019-05-19T08:06:57.649Z,20.90
2019-05-19T08:09:23.685Z,20.80
2019-05-19T08:11:49.931Z,20.80
2019-05-19T08:14:16.119Z,20.70
2019-05-19T08:16:42.401Z,20.90
2019-05-19T08:19:08.560Z,21.30
2019-05-19T08:21:34.606Z,21.30
2019-05-19T08:24:01.289Z,21.20
2019-05-19T08:26:27.606Z,21.40
2019-05-19T08:28:54.766Z,21.90
2019-05-19T08:31:20.795Z,21.90
2019-05-19T08:33:46.840Z,21.80
2019-05-19T08:36:12.854Z,21.90
2019-05-19T08:38:39.217Z,22.10
2019-05-19T08:41:05.347Z,21.90
2019-05-19T08:43:31.506Z,21.90
2019-05-19T08:45:57.672Z,21.70
2019-05-19T08:48:23.826Z,21.90
2019-05-19T08:50:50.073Z,21.90
2019-05-19T08:53:16.258Z,22.00
2019-05-19T08:55:42.503Z,22.00
2019-05-19T08:58:08.667Z,22.00
2019-05-19T09:00:38.234Z,22.30
2019-05-19T09:03:03.210Z,22.30
2019-05-19T09:05:29.455Z,22.20
2019-05-19T09:07:56.955Z,22.40
2019-05-19T09:10:23.105Z,22.50
2019-05-19T09:12:49.259Z,22.60
2019-05-19T09:15:15.711Z,22.80
2019-05-19T09:17:41.976Z,23.40
2019-05-19T09:20:08.364Z,23.40
2019-05-19T09:22:35.632Z,23.20
2019-05-19T09:25:05.367Z,23.70
2019-05-19T09:27:31.533Z,23.70
2019-05-19T09:29:57.690Z,24.10
2019-05-19T09:32:23.839Z,23.90
2019-05-19T09:34:50.764Z,24.20
2019-05-19T09:37:16.919Z,24.50
2019-05-19T09:39:43.338Z,24.20
2019-05-19T09:42:09.503Z,24.30
2019-05-19T09:44:35.988Z,24.60
2019-05-19T09:47:02.235Z,24.80
2019-05-19T09:49:31.531Z,24.20
2019-05-19T09:51:58.464Z,24.20
2019-05-19T09:54:24.628Z,24.50
2019-05-19T09:56:50.771Z,24.70
2019-05-19T09:59:16.951Z,25.10
2019-05-19T10:01:43.082Z,25.30
2019-05-19T10:04:09.245Z,25.50
2019-05-19T10:06:35.419Z,25.40
2019-05-19T10:09:04.131Z,24.50
2019-05-19T10:11:40.383Z,24.30
2019-05-19T10:14:06.697Z,24.40
2019-05-19T10:16:32.826Z,24.80
2019-05-19T10:18:59.004Z,25.20
2019-05-19T10:21:25.148Z,25.10
2019-05-19T10:23:51.627Z,24.90
2019-05-19T10:26:17.801Z,25.40
2019-05-19T10:28:45.172Z,25.50
2019-05-19T10:31:11.369Z,25.60
2019-05-19T10:33:37.535Z,25.70
2019-05-19T10:36:03.993Z,25.50
2019-05-19T10:38:30.268Z,25.60
2019-05-19T10:40:56.458Z,25.90
2019-05-19T10:43:22.618Z,25.70
2019-05-19T10:45:50.680Z,25.70
2019-05-19T10:48:17.079Z,25.30
2019-05-19T10:50:43.230Z,25.50
2019-05-19T10:53:09.364Z,25.80
2019-05-19T10:55:37.014Z,25.80
2019-05-19T10:58:03.450Z,25.90
2019-05-19T11:00:29.596Z,25.30
2019-05-19T11:02:56.047Z,25.40
2019-05-19T11:05:22.663Z,25.50
2019-05-19T11:07:48.807Z,25.50
2019-05-19T11:10:15.255Z,25.50
2019-05-19T11:12:41.396Z,25.30
2019-05-19T11:15:07.749Z,25.00
2019-05-19T11:17:33.882Z,25.10
2019-05-19T11:20:00.036Z,25.30
2019-05-19T11:22:26.183Z,25.40
2019-05-19T11:24:52.541Z,25.30
2019-05-19T11:27:18.790Z,25.20
2019-05-19T11:29:44.947Z,25.10
2019-05-19T11:32:12.137Z,25.10
2019-05-19T11:34:38.311Z,25.10
2019-05-19T11:37:07.221Z,25.10
2019-05-19T11:39:32.520Z,25.00
2019-05-19T11:41:58.697Z,25.00
2019-05-19T11:44:25.152Z,25.00
2019-05-19T11:46:51.300Z,24.90
2019-05-19T11:49:17.573Z,25.00
2019-05-19T11:51:43.740Z,25.20
2019-05-19T11:54:09.876Z,25.30
2019-05-19T11:56:36.055Z,25.40
2019-05-19T11:59:02.216Z,25.10
2019-05-19T12:01:28.361Z,25.40
2019-05-19T12:03:55.530Z,25.30
2019-05-19T12:06:36.130Z,25.30
2019-05-19T12:08:50.502Z,25.30
2019-05-19T12:11:16.776Z,24.90
2019-05-19T12:13:42.998Z,24.80
2019-05-19T12:16:09.322Z,24.80
2019-05-19T12:18:35.479Z,24.70
2019-05-19T12:21:01.617Z,24.80
2019-05-19T12:23:28.134Z,24.90
2019-05-19T12:25:55.402Z,24.90
2019-05-19T12:28:21.541Z,25.10
2019-05-19T12:30:47.695Z,25.10
2019-05-19T12:33:13.832Z,24.90
2019-05-19T12:35:40.001Z,25.00
2019-05-19T12:38:06.173Z,24.80
2019-05-19T12:40:32.337Z,24.70
2019-05-19T12:42:58.755Z,24.60
2019-05-19T12:45:24.910Z,24.60
2019-05-19T12:47:51.405Z,24.00
2019-05-19T12:50:18.127Z,24.20
2019-05-19T12:52:44.289Z,24.40
2019-05-19T12:55:11.242Z,24.50
2019-05-19T12:57:37.391Z,24.50
2019-05-19T13:00:04.048Z,24.70
2019-05-19T13:02:31.198Z,24.90
2019-05-19T13:05:04.724Z,25.00
2019-05-19T13:07:25.416Z,24.80
2019-05-19T13:09:51.554Z,24.90
2019-05-19T13:12:17.720Z,24.90
2019-05-19T13:14:43.872Z,24.80
2019-05-19T13:17:11.042Z,24.80
2019-05-19T13:19:37.195Z,24.80
2019-05-19T13:22:03.648Z,25.00
2019-05-19T13:24:29.807Z,25.20
2019-05-19T13:26:57.040Z,25.30
2019-05-19T13:29:23.448Z,25.20
2019-05-19T13:31:49.618Z,25.40
2019-05-19T13:34:15.820Z,25.50
2019-05-19T13:36:41.972Z,25.40
2019-05-19T13:39:09.365Z,25.40
2019-05-19T13:41:35.599Z,25.10
2019-05-19T13:44:01.759Z,25.30
2019-05-19T13:46:28.304Z,25.20
2019-05-19T13:48:54.781Z,25.30
2019-05-19T13:51:20.940Z,25.50
2019-05-19T13:53:47.120Z,25.40
2019-05-19T13:56:13.264Z,25.60
2019-05-19T13:58:39.433Z,25.80
2019-05-19T14:01:06.135Z,25.60
2019-05-19T14:03:32.715Z,25.70
2019-05-19T14:05:58.865Z,25.00
2019-05-19T14:08:25.027Z,25.50
2019-05-19T14:10:51.178Z,25.70
2019-05-19T14:13:17.323Z,25.80
2019-05-19T14:15:43.811Z,25.50
2019-05-19T14:18:09.960Z,25.40
2019-05-19T14:20:36.131Z,25.60
2019-05-19T14:23:02.278Z,25.30
2019-05-19T14:25:28.463Z,25.60
2019-05-19T14:27:54.676Z,25.50
2019-05-19T14:30:21.168Z,25.40
2019-05-19T14:32:47.304Z,25.20
2019-05-19T14:35:13.444Z,25.10
2019-05-19T14:37:39.613Z,25.10
2019-05-19T14:40:06.263Z,25.30
2019-05-19T14:42:52.375Z,25.30
2019-05-19T14:45:18.763Z,25.40
2019-05-19T14:47:44.923Z,25.50
2019-05-19T14:50:11.191Z,24.20
2019-05-19T14:52:37.608Z,23.40
2019-05-19T14:55:05.089Z,22.70
2019-05-19T14:57:43.888Z,22.50
2019-05-19T14:59:59.585Z,22.40
2019-05-19T15:02:25.743Z,22.50
2019-05-19T15:04:51.900Z,22.70
2019-05-19T15:07:18.304Z,22.90
2019-05-19T15:09:44.508Z,22.80
2019-05-19T15:12:10.724Z,22.80
2019-05-19T15:14:37.148Z,22.90
2019-05-19T15:17:03.327Z,23.00
2019-05-19T15:19:29.527Z,23.20
2019-05-19T15:21:55.672Z,23.30
2019-05-19T15:24:21.816Z,23.40
2019-05-19T15:26:47.970Z,23.20
2019-05-19T15:29:14.123Z,23.40
2019-05-19T15:31:40.270Z,23.30
2019-05-19T15:34:06.406Z,23.40
2019-05-19T15:36:32.584Z,23.10
2019-05-19T15:38:58.815Z,23.30
2019-05-19T15:41:24.982Z,23.40
2019-05-19T15:43:51.698Z,23.30
2019-05-19T15:46:18.321Z,23.40
2019-05-19T15:48:44.971Z,23.20
2019-05-19T15:51:11.131Z,23.00
2019-05-19T15:53:37.525Z,22.50
2019-05-19T15:56:04.801Z,22.10
2019-05-19T15:58:31.541Z,22.00
2019-05-19T16:00:57.721Z,21.90
2019-05-19T16:03:23.968Z,21.70
2019-05-19T16:05:50.445Z,21.80
2019-05-19T16:08:16.597Z,22.00
2019-05-19T16:10:42.781Z,21.90
2019-05-19T16:13:09.101Z,22.00
2019-05-19T16:15:35.477Z,22.20
2019-05-19T16:18:01.636Z,21.90
2019-05-19T16:20:27.843Z,22.00
2019-05-19T16:22:54.014Z,21.80
2019-05-19T16:25:20.169Z,21.80
2019-05-19T16:27:47.080Z,21.70
2019-05-19T16:30:15.148Z,21.80
2019-05-19T16:32:42.504Z,21.60
2019-05-19T16:35:08.782Z,21.50
2019-05-19T16:37:35.437Z,21.60
2019-05-19T16:40:02.223Z,21.60
2019-05-19T16:42:30.397Z,21.50
2019-05-19T16:44:56.543Z,21.50
2019-05-19T16:47:27.334Z,21.40
2019-05-19T16:49:53.824Z,21.40
2019-05-19T16:52:20.326Z,21.40
2019-05-19T16:55:04.726Z,21.30
2019-05-19T16:57:32.784Z,21.30
2019-05-19T16:59:58.939Z,21.10
2019-05-19T17:02:25.102Z,21.00
2019-05-19T17:04:51.255Z,21.20
2019-05-19T17:07:17.663Z,21.10
2019-05-19T17:09:43.839Z,21.10
2019-05-19T17:12:10.083Z,20.80
2019-05-19T17:14:36.244Z,20.60
2019-05-19T17:17:02.683Z,20.40
2019-05-19T17:19:28.867Z,20.40
2019-05-19T17:21:55.346Z,20.30
2019-05-19T17:24:21.487Z,20.30
2019-05-19T17:26:47.642Z,20.20
2019-05-19T17:29:14.131Z,20.20
2019-05-19T17:31:40.289Z,20.30
2019-05-19T17:34:06.443Z,20.00
2019-05-19T17:36:32.584Z,20.00
2019-05-19T17:38:59.044Z,19.80
2019-05-19T17:41:25.191Z,19.70
2019-05-19T17:43:51.362Z,19.70
2019-05-19T17:46:17.948Z,19.40
2019-05-19T17:48:44.102Z,19.20
2019-05-19T17:51:10.263Z,19.20
2019-05-19T17:53:36.520Z,19.30
2019-05-19T17:56:03.094Z,19.00
2019-05-19T17:58:29.944Z,18.90
2019-05-19T18:00:56.279Z,18.90
2019-05-19T18:03:24.299Z,19.00
2019-05-19T18:05:50.438Z,19.00
2019-05-19T18:08:16.616Z,18.60
2019-05-19T18:10:42.781Z,18.50
2019-05-19T18:13:08.928Z,18.50
2019-05-19T18:15:35.477Z,18.50
2019-05-19T18:18:01.653Z,18.50
2019-05-19T18:20:27.797Z,18.50
2019-05-19T18:22:53.948Z,18.30
2019-05-19T18:25:20.108Z,18.40
2019-05-19T18:27:46.584Z,18.30
2019-05-19T18:30:13.355Z,18.20
2019-05-19T18:32:39.511Z,18.10
2019-05-19T18:35:06.263Z,18.10
2019-05-19T18:37:32.657Z,18.10
2019-05-19T18:39:58.913Z,17.90
2019-05-19T18:42:25.070Z,17.80
2019-05-19T18:44:51.232Z,17.80
2019-05-19T18:47:18.392Z,17.80
2019-05-19T18:49:44.795Z,17.80
2019-05-19T18:52:10.960Z,17.80
2019-05-19T18:54:37.354Z,17.70
2019-05-19T18:57:03.520Z,17.70
2019-05-19T18:59:29.685Z,17.60
2019-05-19T19:01:55.865Z,17.60
2019-05-19T19:04:22.116Z,17.60
2019-05-19T19:06:48.258Z,17.50
2019-05-19T19:09:14.411Z,17.50
2019-05-19T19:11:40.842Z,17.50
2019-05-19T19:14:06.992Z,17.50
2019-05-19T19:16:33.150Z,17.40
2019-05-19T19:18:59.291Z,17.40
2019-05-19T19:21:25.456Z,17.30
2019-05-19T19:23:51.604Z,17.30
2019-05-19T19:26:17.765Z,17.20
2019-05-19T19:28:43.946Z,17.30
2019-05-19T19:31:10.570Z,17.20
2019-05-19T19:33:36.739Z,17.20
2019-05-19T19:36:03.336Z,17.10
2019-05-19T19:38:29.695Z,17.10
2019-05-19T19:40:55.856Z,17.10
2019-05-19T19:43:21.993Z,17.00
2019-05-19T19:45:48.160Z,17.00
2019-05-19T19:48:14.371Z,17.00
2019-05-19T19:50:40.527Z,16.90
2019-05-19T19:53:06.688Z,17.00
2019-05-19T19:55:32.839Z,16.90
2019-05-19T19:57:59.155Z,16.90
2019-05-19T20:00:36.810Z,16.90
2019-05-19T20:03:04.529Z,16.90
2019-05-19T20:05:31.132Z,16.90
2019-05-19T20:07:57.925Z,17.00
2019-05-19T20:10:24.461Z,16.90
2019-05-19T20:12:51.818Z,16.90
2019-05-19T20:15:17.950Z,16.80
2019-05-19T20:17:44.331Z,16.80
2019-05-19T20:20:10.805Z,16.70
2019-05-19T20:22:37.259Z,16.70
2019-05-19T20:25:04.794Z,16.80
2019-05-19T20:27:31.050Z,16.80
2019-05-19T20:29:57.281Z,16.80
2019-05-19T20:32:24.436Z,16.90
2019-05-19T20:34:50.599Z,16.80
2019-05-19T20:37:16.732Z,16.90
2019-05-19T20:39:42.888Z,16.80
2019-05-19T20:42:09.023Z,16.80
2019-05-19T20:44:35.459Z,16.70
2019-05-19T20:47:01.656Z,16.60
2019-05-19T20:49:27.810Z,16.50
2019-05-19T20:51:53.952Z,16.50
2019-05-19T20:54:20.368Z,16.50
2019-05-19T20:56:46.529Z,16.30
2019-05-19T20:59:12.717Z,16.20
2019-05-19T21:01:38.839Z,16.20
2019-05-19T21:04:05.361Z,16.10
2019-05-19T21:06:31.489Z,16.10
2019-05-19T21:08:57.673Z,16.00
2019-05-19T21:11:23.848Z,16.00
2019-05-19T21:13:50.214Z,15.90
2019-05-19T21:16:16.364Z,15.90
2019-05-19T21:19:01.094Z,15.80
2019-05-19T21:21:27.242Z,15.80
2019-05-19T21:23:53.399Z,15.80
2019-05-19T21:26:19.547Z,15.80
2019-05-19T21:28:45.718Z,15.80
2019-05-19T21:31:11.872Z,15.80
2019-05-19T21:33:38.036Z,15.80
2019-05-19T21:36:04.207Z,15.70
2019-05-19T21:38:30.393Z,15.70
2019-05-19T21:40:56.631Z,15.70
2019-05-19T21:43:22.812Z,15.60
2019-05-19T21:45:49.044Z,15.60
2019-05-19T21:48:17.089Z,15.40
2019-05-19T21:50:43.241Z,15.40
2019-05-19T21:53:09.713Z,15.40
2019-05-19T21:55:36.147Z,15.40
2019-05-19T21:58:02.296Z,15.40
2019-05-19T22:00:29.836Z,15.30
2019-05-19T22:02:56.379Z,15.30
2019-05-19T22:05:22.723Z,15.20
2019-05-19T22:07:56.810Z,15.30
2019-05-19T22:10:23.088Z,15.30
2019-05-19T22:12:49.231Z,15.30
2019-05-19T22:15:16.540Z,15.30
2019-05-19T22:17:44.193Z,15.10
2019-05-19T22:20:12.378Z,15.20
2019-05-19T22:22:38.788Z,15.30
2019-05-19T22:25:06.034Z,15.20
2019-05-19T22:27:32.183Z,15.10
2019-05-19T22:29:58.347Z,15.10
2019-05-19T22:32:24.492Z,14.90
2019-05-19T22:34:50.636Z,14.70
2019-05-19T22:37:16.783Z,14.60
2019-05-19T22:39:43.032Z,14.70
2019-05-19T22:42:09.175Z,14.70
2019-05-19T22:44:35.485Z,14.70
2019-05-19T22:47:01.634Z,14.70
2019-05-19T22:49:27.782Z,14.70
2019-05-19T22:51:54.089Z,14.70
2019-05-19T22:54:20.578Z,14.80
2019-05-19T22:56:47.007Z,14.70
2019-05-19T22:59:19.684Z,14.70
2019-05-19T23:01:51.281Z,14.70
2019-05-19T23:04:11.412Z,14.70
2019-05-19T23:06:37.628Z,14.50
2019-05-19T23:09:05.180Z,14.50
2019-05-19T23:11:31.338Z,14.60
2019-05-19T23:13:57.783Z,14.60
2019-05-19T23:16:23.939Z,14.50
2019-05-19T23:18:50.088Z,14.50
2019-05-19T23:21:17.331Z,14.60
2019-05-19T23:23:44.587Z,14.70
2019-05-19T23:26:10.739Z,14.60
2019-05-19T23:28:36.895Z,14.60
2019-05-19T23:31:03.105Z,14.60
2019-05-19T23:33:29.508Z,14.50
2019-05-19T23:35:55.655Z,14.40
2019-05-19T23:38:21.803Z,14.40
2019-05-19T23:40:47.948Z,14.30
2019-05-19T23:43:14.159Z,14.40
2019-05-19T23:45:40.312Z,14.30
2019-05-19T23:48:06.447Z,14.20
2019-05-19T23:50:32.609Z,14.00
2019-05-19T23:52:59.088Z,13.90
2019-05-19T23:55:25.278Z,13.80
2019-05-19T23:57:51.739Z,14.00
